Time;durP1;ratioP1;P1;durP2;ratioP2;P2;SDS_P1;SDS_P2;PMS_P1;PMS_P2;Temp;Humidity;BMP_temperature;BMP_pressure;BME280_temperature;BME280_humidity;BME280_pressure;Samples;Min_cycle;Max_cycle;Signal;HPM_P1;HPM_P2
2021/07/10 00:01:31;;;;;;;39.38;37.08;;;13.80;99.90;;;;;;5033670;28;20022;-57
2021/07/10 00:03:59;;;;;;;37.95;35.65;;;13.90;99.90;;;;;;5033279;28;20486;-56
2021/07/10 00:06:26;;;;;;;39.05;36.40;;;14.00;99.90;;;;;;5033387;28;20090;-57
2021/07/10 00:08:53;;;;;;;38.03;35.83;;;14.00;99.90;;;;;;5033317;28;20061;-58
2021/07/10 00:11:21;;;;;;;35.72;33.83;;;14.10;99.90;;;;;;5033425;28;20051;-57
2021/07/10 00:13:51;;;;;;;35.28;33.28;;;14.10;99.90;;;;;;5033445;28;20040;-59
2021/07/10 00:16:18;;;;;;;32.17;30.48;;;14.20;99.90;;;;;;5033235;28;20206;-58
2021/07/10 00:18:45;;;;;;;33.22;31.05;;;14.10;99.90;;;;;;5033288;28;20060;-58
2021/07/10 00:21:13;;;;;;;32.17;30.23;;;14.10;99.90;;;;;;5033149;28;20095;-59
2021/07/10 00:23:40;;;;;;;33.38;31.35;;;14.20;99.90;;;;;;5033246;28;20053;-58
2021/07/10 00:26:08;;;;;;;33.00;31.08;;;14.20;99.90;;;;;;5032050;28;20052;-58
2021/07/10 00:28:35;;;;;;;33.47;31.48;;;14.20;99.90;;;;;;5032987;28;20443;-61
2021/07/10 00:31:02;;;;;;;38.72;36.13;;;14.20;99.90;;;;;;5033184;28;20033;-60
2021/07/10 00:33:30;;;;;;;34.00;31.75;;;14.20;99.90;;;;;;5032902;28;20124;-59
2021/07/10 00:35:57;;;;;;;33.50;31.60;;;14.20;99.90;;;;;;5033246;28;20032;-60
2021/07/10 00:38:25;;;;;;;33.88;31.70;;;14.20;99.90;;;;;;5032978;28;20433;-59
2021/07/10 00:40:52;;;;;;;32.90;30.80;;;14.20;99.90;;;;;;5033016;28;20028;-60
2021/07/10 00:43:19;;;;;;;34.90;33.00;;;14.20;99.90;;;;;;5033084;28;20470;-60
2021/07/10 00:45:47;;;;;;;35.50;33.35;;;14.30;99.90;;;;;;5033190;28;20088;-60
2021/07/10 00:48:15;;;;;;;32.50;30.40;;;14.30;99.90;;;;;;5032862;28;20057;-59
2021/07/10 00:50:42;;;;;;;33.45;31.52;;;14.20;99.90;;;;;;5033002;28;20108;-59
2021/07/10 00:53:10;;;;;;;33.70;31.67;;;14.30;99.90;;;;;;5032863;28;20033;-56
2021/07/10 00:55:37;;;;;;;32.25;30.15;;;14.50;99.90;;;;;;5032880;28;20027;-62
2021/07/10 00:58:05;;;;;;;30.92;29.17;;;14.40;99.90;;;;;;5033159;28;20030;-62
2021/07/10 01:00:32;;;;;;;29.17;27.67;;;14.40;99.90;;;;;;5033330;28;20021;-63
2021/07/10 01:03:00;;;;;;;27.40;25.90;;;14.40;99.90;;;;;;5036961;28;20025;-64
2021/07/10 01:05:34;;;;;;;27.08;25.40;;;14.30;99.90;;;;;;5037069;28;20128;-64
2021/07/10 01:08:02;;;;;;;28.10;26.35;;;14.30;99.90;;;;;;5037121;28;20128;-64
2021/07/10 01:10:29;;;;;;;31.75;29.85;;;14.40;99.90;;;;;;5037471;28;20060;-63
2021/07/10 01:12:57;;;;;;;29.55;27.70;;;14.50;99.90;;;;;;5035689;28;20029;-64
2021/07/10 01:15:26;;;;;;;30.80;29.10;;;14.40;99.90;;;;;;5036847;28;20025;-63
2021/07/10 01:17:57;;;;;;;30.98;29.10;;;14.50;99.90;;;;;;5036898;28;20025;-63
2021/07/10 01:20:26;;;;;;;31.30;29.27;;;14.40;99.90;;;;;;5036834;28;20081;-62
2021/07/10 01:22:56;;;;;;;30.60;28.90;;;14.40;99.90;;;;;;5036897;28;20029;-63
2021/07/10 01:25:28;;;;;;;33.35;31.25;;;14.40;99.90;;;;;;5036794;28;20031;-63
2021/07/10 01:27:55;;;;;;;30.00;28.17;;;14.60;99.90;;;;;;5036969;28;20151;-63
2021/07/10 01:30:23;;;;;;;31.98;29.90;;;14.50;99.90;;;;;;5036925;28;20368;-63
2021/07/10 01:32:53;;;;;;;30.92;29.23;;;14.40;99.90;;;;;;5036562;28;20083;-63
2021/07/10 01:35:21;;;;;;;29.70;27.83;;;14.30;99.90;;;;;;5035194;28;20056;-63
2021/07/10 01:37:50;;;;;;;32.15;30.02;;;14.20;99.90;;;;;;5036380;28;20442;-63
2021/07/10 01:40:20;;;;;;;31.77;29.77;;;14.10;99.90;;;;;;5036503;28;20565;-62
2021/07/10 01:42:48;;;;;;;31.15;29.25;;;14.10;99.90;;;;;;5036548;28;20454;-64
2021/07/10 01:45:20;;;;;;;30.70;28.63;;;14.00;99.90;;;;;;5036286;28;20017;-63
2021/07/10 01:47:49;;;;;;;31.63;29.60;;;14.00;99.90;;;;;;5036237;28;20389;-64
2021/07/10 01:50:17;;;;;;;33.75;31.55;;;14.00;99.90;;;;;;5036102;28;20029;-65
2021/07/10 01:52:45;;;;;;;33.80;31.52;;;13.90;99.90;;;;;;5036061;28;20029;-64
2021/07/10 01:55:14;;;;;;;31.40;29.42;;;13.90;99.90;;;;;;5035976;28;20021;-62
2021/07/10 01:57:44;;;;;;;31.23;29.30;;;13.90;99.90;;;;;;5036112;28;20021;-62
2021/07/10 02:00:14;;;;;;;31.38;29.48;;;13.90;99.90;;;;;;5036302;28;20494;-61
2021/07/10 02:02:42;;;;;;;30.13;28.33;;;13.90;99.90;;;;;;5036090;28;20048;-61
2021/07/10 02:05:11;;;;;;;28.88;27.27;;;13.90;99.90;;;;;;5035251;28;20034;-61
2021/07/10 02:07:39;;;;;;;29.20;27.40;;;14.00;99.90;;;;;;5034596;28;20025;-63
2021/07/10 02:10:11;;;;;;;28.95;27.15;;;13.90;99.90;;;;;;5034829;28;20045;-63
2021/07/10 02:12:41;;;;;;;27.90;26.17;;;14.10;99.90;;;;;;5034228;28;20020;-62
2021/07/10 02:15:09;;;;;;;28.42;26.77;;;14.10;99.90;;;;;;5034669;28;20389;-62
2021/07/10 02:17:37;;;;;;;27.85;26.15;;;14.10;99.90;;;;;;5034739;28;20057;-63
2021/07/10 02:20:09;;;;;;;27.73;25.75;;;14.10;99.90;;;;;;5034564;28;20021;-62
2021/07/10 02:22:36;;;;;;;27.63;26.05;;;14.00;99.90;;;;;;5034588;28;20032;-62
2021/07/10 02:25:07;;;;;;;27.77;26.10;;;14.00;99.90;;;;;;5034603;28;20025;-61
2021/07/10 02:27:34;;;;;;;29.58;27.88;;;14.20;99.90;;;;;;5033151;28;20030;-62
2021/07/10 02:30:04;;;;;;;27.92;26.25;;;14.30;99.90;;;;;;5034522;28;20029;-58
2021/07/10 02:32:31;;;;;;;26.58;24.98;;;14.30;99.90;;;;;;5034388;28;20486;-62
2021/07/10 02:34:59;;;;;;;26.60;25.00;;;14.30;99.90;;;;;;5034415;28;20021;-62
2021/07/10 02:37:26;;;;;;;25.38;23.77;;;14.30;99.90;;;;;;5034324;28;20025;-62
2021/07/10 02:39:54;;;;;;;27.00;25.25;;;14.10;99.90;;;;;;5034340;28;20025;-63
2021/07/10 02:42:21;;;;;;;26.23;24.60;;;14.20;99.90;;;;;;5034264;28;20386;-62
2021/07/10 02:44:50;;;;;;;26.17;24.58;;;14.20;99.90;;;;;;5034279;28;20026;-62
2021/07/10 02:47:20;;;;;;;25.27;24.08;;;14.20;99.90;;;;;;5034211;28;20032;-60
2021/07/10 02:49:47;;;;;;;25.45;23.95;;;14.10;99.90;;;;;;5034410;28;20466;-61
2021/07/10 02:52:15;;;;;;;24.55;23.05;;;14.10;99.90;;;;;;5034205;28;20025;-65
2021/07/10 02:54:42;;;;;;;25.27;23.80;;;14.20;99.90;;;;;;5033928;28;20024;-62
2021/07/10 02:57:10;;;;;;;26.00;24.50;;;14.10;99.90;;;;;;5034009;28;20014;-62
2021/07/10 02:59:37;;;;;;;24.75;23.45;;;14.00;99.90;;;;;;5033901;28;20021;-62
2021/07/10 03:02:06;;;;;;;25.20;23.90;;;14.00;99.90;;;;;;5034049;28;20034;-62
2021/07/10 03:04:33;;;;;;;25.27;23.90;;;14.00;99.90;;;;;;4932571;28;2912775;-63
2021/07/10 03:10:47;;;;;;;24.73;23.25;;;14.00;99.90;;;;;;5035121;28;20500;-63
2021/07/10 03:13:16;;;;;;;25.70;24.00;;;13.90;99.90;;;;;;5034521;28;20033;-63
2021/07/10 03:15:43;;;;;;;25.20;23.67;;;14.00;99.90;;;;;;5034808;28;20025;-63
2021/07/10 03:18:11;;;;;;;27.05;25.05;;;14.00;99.90;;;;;;5034700;28;20467;-64
2021/07/10 03:20:38;;;;;;;28.17;26.45;;;14.00;99.90;;;;;;5033434;28;20080;-63
2021/07/10 03:23:06;;;;;;;32.50;30.30;;;13.80;99.90;;;;;;5034482;28;20479;-62
2021/07/10 03:25:33;;;;;;;35.60;33.08;;;13.40;99.90;;;;;;5034019;28;20027;-63
2021/07/10 03:28:01;;;;;;;40.42;37.83;;;13.10;99.90;;;;;;5034516;28;20037;-61
2021/07/10 03:30:28;;;;;;;44.13;40.92;;;13.00;99.90;;;;;;5034391;28;20018;-63
2021/07/10 03:32:56;;;;;;;45.08;41.58;;;12.80;99.90;;;;;;5034238;28;20030;-63
2021/07/10 03:35:24;;;;;;;45.28;41.78;;;12.70;99.90;;;;;;5034261;28;20018;-62
2021/07/10 03:37:52;;;;;;;45.10;41.10;;;12.70;99.90;;;;;;5033030;28;20555;-62
2021/07/10 03:40:22;;;;;;;47.55;43.33;;;12.60;99.90;;;;;;5034190;28;20443;-63
2021/07/10 03:42:50;;;;;;;44.63;41.03;;;12.50;99.90;;;;;;5034230;28;20025;-64
2021/07/10 03:45:18;;;;;;;44.75;41.13;;;12.40;99.90;;;;;;5033915;28;20037;-62
2021/07/10 03:47:45;;;;;;;45.90;42.15;;;12.30;99.90;;;;;;5034348;28;20029;-64
2021/07/10 03:50:14;;;;;;;47.95;43.75;;;12.20;99.90;;;;;;5034098;28;20025;-62
2021/07/10 03:52:42;;;;;;;49.33;45.38;;;12.20;99.90;;;;;;5033980;28;20022;-62
2021/07/10 03:55:14;;;;;;;44.22;39.95;;;12.20;99.90;;;;;;5033996;28;20056;-63
2021/07/10 03:57:42;;;;;;;48.13;43.72;;;12.20;99.90;;;;;;5033924;28;20025;-60
2021/07/10 04:00:13;;;;;;;46.78;42.05;;;12.20;99.90;;;;;;5033837;28;20083;-60
2021/07/10 04:02:40;;;;;;;48.05;42.92;;;12.30;99.90;;;;;;5032476;28;20021;-59
2021/07/10 04:05:10;;;;;;;50.47;45.80;;;12.30;99.90;;;;;;5033476;28;20045;-60
2021/07/10 04:07:38;;;;;;;54.42;43.78;;;12.50;99.90;;;;;;5033678;28;20510;-60
2021/07/10 04:10:08;;;;;;;51.22;46.05;;;12.40;99.90;;;;;;5033878;28;20021;-59
2021/07/10 04:12:35;;;;;;;56.55;48.30;;;12.50;99.90;;;;;;5033595;28;20390;-58
2021/07/10 04:15:04;;;;;;;51.63;46.35;;;12.50;99.90;;;;;;5032069;28;20025;-60
2021/07/10 04:17:32;;;;;;;52.65;47.65;;;12.60;99.90;;;;;;5033623;28;20032;-60
2021/07/10 04:20:01;;;;;;;53.03;47.33;;;12.60;99.90;;;;;;5033326;28;20548;-59
2021/07/10 04:22:28;;;;;;;50.85;45.38;;;12.70;99.90;;;;;;5033605;28;20025;-60
2021/07/10 04:24:55;;;;;;;49.63;44.65;;;12.90;99.90;;;;;;5033437;28;20021;-59
2021/07/10 04:27:23;;;;;;;52.13;46.60;;;12.90;99.90;;;;;;5033256;28;20034;-61
2021/07/10 04:29:50;;;;;;;54.03;48.83;;;13.00;99.90;;;;;;5033040;28;20032;-59
2021/07/10 04:32:18;;;;;;;50.50;45.20;;;12.90;99.90;;;;;;5032066;28;20037;-62
2021/07/10 04:34:46;;;;;;;50.75;46.00;;;12.90;99.90;;;;;;5031595;28;20065;-62
2021/07/10 04:37:13;;;;;;;49.85;45.78;;;12.90;99.90;;;;;;5031790;28;20021;-61
2021/07/10 04:39:41;;;;;;;50.38;45.55;;;12.90;99.90;;;;;;5033241;28;20018;-61
2021/07/10 04:42:09;;;;;;;48.08;44.08;;;12.90;99.90;;;;;;5033105;28;20501;-60
2021/07/10 04:44:36;;;;;;;48.65;44.65;;;12.90;99.90;;;;;;5033005;28;20069;-62
2021/07/10 04:47:05;;;;;;;49.97;45.55;;;13.00;99.90;;;;;;5033215;28;20057;-62
2021/07/10 04:49:32;;;;;;;52.25;48.13;;;13.00;99.90;;;;;;5033076;28;20025;-62
2021/07/10 04:52:01;;;;;;;54.97;50.60;;;13.10;99.90;;;;;;5033115;28;20057;-61
2021/07/10 04:54:29;;;;;;;54.15;49.95;;;13.10;99.90;;;;;;5032893;28;20045;-61
2021/07/10 04:56:56;;;;;;;54.10;49.90;;;13.00;99.90;;;;;;5032919;28;20018;-60
2021/07/10 04:59:24;;;;;;;54.28;49.78;;;12.90;99.90;;;;;;5033055;28;20080;-59
2021/07/10 05:01:51;;;;;;;51.22;47.17;;;12.90;99.90;;;;;;5032916;28;20018;-60
2021/07/10 05:04:19;;;;;;;55.97;51.72;;;12.90;99.90;;;;;;5032831;28;20042;-60
2021/07/10 05:06:46;;;;;;;55.00;50.55;;;12.80;99.90;;;;;;5033069;28;20053;-60
2021/07/10 05:09:13;;;;;;;50.67;46.88;;;12.90;99.90;;;;;;5032890;28;20471;-60
2021/07/10 05:11:41;;;;;;;49.17;45.30;;;12.90;99.90;;;;;;5032794;28;20021;-61
2021/07/10 05:14:08;;;;;;;53.40;48.95;;;13.00;99.90;;;;;;5032846;28;20025;-60
2021/07/10 05:16:36;;;;;;;54.45;50.03;;;13.00;99.90;;;;;;5032815;28;20026;-63
2021/07/10 05:19:05;;;;;;;56.70;52.70;;;13.10;99.90;;;;;;5031734;28;20021;-62
2021/07/10 05:21:34;;;;;;;55.85;51.95;;;13.00;99.90;;;;;;5033077;28;20033;-64
2021/07/10 05:24:01;;;;;;;55.70;50.97;;;13.00;99.90;;;;;;5032791;28;20021;-59
2021/07/10 05:26:29;;;;;;;56.95;52.17;;;12.60;99.90;;;;;;5033001;28;20033;-60
2021/07/10 05:35:40;;;;;;;56.40;51.72;;;11.90;99.90;;;;;;5032892;28;20124;-60
2021/07/10 05:38:07;;;;;;;53.65;49.25;;;11.80;99.90;;;;;;5032675;28;20497;-60
2021/07/10 05:40:35;;;;;;;53.90;49.60;;;11.60;99.90;;;;;;5032645;28;20485;-60
2021/07/10 05:43:02;;;;;;;56.17;51.55;;;11.60;99.90;;;;;;5032695;28;20521;-60
2021/07/10 05:45:29;;;;;;;53.53;49.22;;;11.50;99.90;;;;;;5032825;28;20048;-61
2021/07/10 05:47:57;;;;;;;50.67;46.47;;;11.50;99.90;;;;;;5034780;28;20036;-60
2021/07/10 05:50:24;;;;;;;54.58;50.08;;;11.40;99.90;;;;;;5036250;28;20024;-60
2021/07/10 05:52:51;;;;;;;56.78;52.42;;;11.30;99.90;;;;;;5036158;28;20075;-61
2021/07/10 05:55:19;;;;;;;53.63;49.20;;;11.30;99.90;;;;;;5036016;28;20025;-61
2021/07/10 05:57:47;;;;;;;54.85;50.28;;;11.30;99.90;;;;;;5036154;28;20014;-61
2021/07/10 06:00:15;;;;;;;56.15;51.47;;;11.20;99.90;;;;;;5036020;28;20108;-60
2021/07/10 06:02:42;;;;;;;55.28;50.70;;;11.30;99.90;;;;;;5035901;28;20079;-59
2021/07/10 06:05:11;;;;;;;55.42;50.92;;;11.20;99.90;;;;;;5035709;28;20124;-60
2021/07/10 06:07:40;;;;;;;55.28;50.67;;;11.20;99.90;;;;;;5035817;28;20498;-60
2021/07/10 06:10:12;;;;;;;59.70;54.95;;;11.20;99.90;;;;;;5036022;28;20092;-60
2021/07/10 06:12:40;;;;;;;57.05;52.40;;;11.10;99.90;;;;;;5035926;28;20034;-60
2021/07/10 06:15:10;;;;;;;53.50;49.10;;;11.20;99.90;;;;;;5035783;28;20033;-60
2021/07/10 06:17:38;;;;;;;52.75;48.30;;;11.10;99.90;;;;;;5035665;28;20026;-61
2021/07/10 06:20:07;;;;;;;55.88;51.28;;;11.10;99.90;;;;;;5035688;28;20026;-58
2021/07/10 06:22:35;;;;;;;53.42;48.75;;;11.10;99.90;;;;;;5035692;28;20022;-58
2021/07/10 06:25:07;;;;;;;54.85;50.28;;;11.10;99.90;;;;;;5035545;28;20021;-59
2021/07/10 06:27:34;;;;;;;53.85;49.55;;;11.20;99.90;;;;;;5035918;28;20478;-59
2021/07/10 06:30:04;;;;;;;55.13;50.42;;;11.20;99.90;;;;;;5035497;28;20398;-60
2021/07/10 06:32:31;;;;;;;57.40;52.63;;;11.20;99.90;;;;;;5035601;28;20441;-59
2021/07/10 06:34:59;;;;;;;57.53;52.85;;;11.20;99.90;;;;;;5035457;28;20033;-58
2021/07/10 06:37:26;;;;;;;57.63;52.75;;;11.20;99.90;;;;;;5035244;28;20040;-59
2021/07/10 06:39:53;;;;;;;58.70;53.38;;;11.30;99.90;;;;;;5035494;28;20079;-60
2021/07/10 06:42:23;;;;;;;58.17;53.47;;;11.30;99.90;;;;;;5034418;28;20026;-60
2021/07/10 06:44:53;;;;;;;58.65;53.60;;;11.40;99.90;;;;;;5034023;28;20052;-60
2021/07/10 06:47:21;;;;;;;57.55;52.65;;;11.40;99.90;;;;;;5035471;28;20032;-61
2021/07/10 06:49:48;;;;;;;59.25;54.05;;;11.40;99.90;;;;;;5035135;28;20029;-61
2021/07/10 06:52:16;;;;;;;59.25;53.97;;;11.50;99.90;;;;;;5035118;28;20021;-61
2021/07/10 06:54:43;;;;;;;59.55;54.00;;;11.60;99.90;;;;;;5035259;28;20025;-61
2021/07/10 06:57:10;;;;;;;59.38;53.92;;;11.60;99.90;;;;;;5035235;28;20029;-61
2021/07/10 06:59:38;;;;;;;59.63;53.97;;;11.60;99.90;;;;;;5034158;28;20021;-61
2021/07/10 07:02:06;;;;;;;64.32;58.58;;;11.60;99.90;;;;;;5035174;28;20091;-61
2021/07/10 07:04:33;;;;;;;65.82;60.10;;;11.60;99.90;;;;;;5035038;28;20056;-61
2021/07/10 07:07:00;;;;;;;63.80;58.53;;;11.60;99.90;;;;;;5035161;28;20100;-62
2021/07/10 07:09:28;;;;;;;63.50;57.75;;;11.70;99.90;;;;;;5034836;28;20076;-61
2021/07/10 07:11:55;;;;;;;66.50;60.50;;;11.60;99.90;;;;;;5034921;28;20397;-59
2021/07/10 07:14:23;;;;;;;58.13;52.80;;;11.80;99.90;;;;;;5034693;28;20040;-61
2021/07/10 07:16:50;;;;;;;60.60;55.33;;;11.70;99.90;;;;;;5034544;28;20056;-62
2021/07/10 07:19:19;;;;;;;61.05;55.60;;;11.60;99.90;;;;;;5034590;28;20029;-62
2021/07/10 07:21:46;;;;;;;61.47;55.72;;;11.60;99.90;;;;;;5034560;28;20417;-61
2021/07/10 07:24:13;;;;;;;64.60;58.70;;;11.70;99.90;;;;;;5034527;28;20109;-59
2021/07/10 07:26:41;;;;;;;62.53;56.85;;;11.70;99.90;;;;;;5034452;28;20056;-60
2021/07/10 07:29:08;;;;;;;62.00;56.45;;;11.70;99.90;;;;;;5033314;28;20034;-60
2021/07/10 07:31:35;;;;;;;62.08;56.78;;;11.70;99.90;;;;;;5034724;28;20041;-60
2021/07/10 07:34:03;;;;;;;61.10;55.63;;;11.70;99.90;;;;;;5034298;28;20403;-60
2021/07/10 07:36:30;;;;;;;60.35;54.92;;;11.80;99.90;;;;;;5034274;28;20531;-61
2021/07/10 07:38:57;;;;;;;59.95;54.65;;;11.80;99.90;;;;;;5034306;28;20156;-60
2021/07/10 07:41:25;;;;;;;58.50;52.88;;;11.80;99.90;;;;;;5034318;28;20018;-60
2021/07/10 07:43:52;;;;;;;55.65;50.55;;;11.80;99.90;;;;;;5034412;28;20022;-60
2021/07/10 07:46:19;;;;;;;58.25;52.58;;;11.80;99.90;;;;;;5034163;28;20029;-60
2021/07/10 07:48:47;;;;;;;57.22;51.78;;;11.80;99.90;;;;;;5034056;28;20109;-60
2021/07/10 07:51:15;;;;;;;52.63;47.10;;;11.80;99.90;;;;;;5034139;28;20442;-58
2021/07/10 07:53:43;;;;;;;55.47;49.83;;;11.80;99.90;;;;;;5033909;28;20457;-60
2021/07/10 07:56:11;;;;;;;55.90;50.58;;;11.70;99.90;;;;;;5033885;28;20021;-63
2021/07/10 07:58:40;;;;;;;57.30;52.05;;;11.70;99.90;;;;;;5033882;28;20022;-63
2021/07/10 08:01:08;;;;;;;56.53;51.53;;;11.70;99.90;;;;;;5033953;28;20029;-63
2021/07/10 08:03:36;;;;;;;57.55;52.33;;;11.70;99.90;;;;;;5033938;28;20017;-61
2021/07/10 08:06:04;;;;;;;58.47;53.15;;;11.70;99.90;;;;;;5033612;28;20045;-62
2021/07/10 08:08:36;;;;;;;57.28;51.80;;;11.70;99.90;;;;;;5033612;28;20029;-62
2021/07/10 08:11:09;;;;;;;56.75;51.72;;;11.70;99.90;;;;;;5033310;28;20025;-62
2021/07/10 08:13:36;;;;;;;58.22;52.60;;;11.70;99.90;;;;;;5032333;28;20025;-62
2021/07/10 08:16:04;;;;;;;58.97;53.38;;;11.60;99.90;;;;;;5033516;28;20025;-62
2021/07/10 08:18:32;;;;;;;56.22;51.25;;;11.70;99.90;;;;;;5033624;28;20067;-62
2021/07/10 08:20:59;;;;;;;55.63;50.15;;;11.60;99.90;;;;;;5033647;28;20025;-62
2021/07/10 08:23:26;;;;;;;57.13;52.05;;;11.60;99.90;;;;;;5033473;28;20034;-62
2021/07/10 08:25:54;;;;;;;57.22;52.30;;;11.60;99.90;;;;;;5032309;28;20029;-62
2021/07/10 08:28:21;;;;;;;57.65;52.83;;;11.60;99.90;;;;;;5033602;28;20552;-61
2021/07/10 08:30:49;;;;;;;60.30;54.92;;;11.60;99.90;;;;;;5033394;28;20032;-62
2021/07/10 08:33:16;;;;;;;61.58;56.63;;;11.60;99.90;;;;;;5033284;28;20029;-61
2021/07/10 08:35:44;;;;;;;59.15;54.13;;;11.60;99.90;;;;;;5033267;28;20022;-62
2021/07/10 08:38:11;;;;;;;60.17;55.10;;;11.60;99.90;;;;;;5033334;28;20045;-63
2021/07/10 08:40:39;;;;;;;59.83;54.58;;;11.60;99.90;;;;;;5033190;28;20093;-62
2021/07/10 08:43:06;;;;;;;56.72;51.92;;;11.60;99.90;;;;;;5033066;28;20109;-62
2021/07/10 08:45:35;;;;;;;55.15;50.60;;;11.60;99.90;;;;;;5033199;28;20053;-62
2021/07/10 08:48:04;;;;;;;57.08;52.17;;;11.50;99.90;;;;;;5033054;28;20087;-62
2021/07/10 08:50:33;;;;;;;57.30;52.88;;;11.50;99.90;;;;;;5033072;28;20025;-63
2021/07/10 08:53:02;;;;;;;56.08;51.55;;;11.50;99.90;;;;;;5032930;28;20035;-63
2021/07/10 08:55:30;;;;;;;56.55;51.65;;;11.50;99.90;;;;;;5032878;28;20030;-62
2021/07/10 08:57:58;;;;;;;57.85;53.15;;;11.50;99.90;;;;;;5031829;28;20483;-63
2021/07/10 09:00:31;;;;;;;55.60;51.03;;;11.50;99.90;;;;;;5033056;28;20028;-62
2021/07/10 09:02:59;;;;;;;60.85;55.60;;;11.50;99.90;;;;;;5033008;28;20050;-63
2021/07/10 09:05:28;;;;;;;56.78;51.85;;;11.60;99.90;;;;;;5032876;28;20050;-63
2021/07/10 09:08:23;;;;;;;57.42;52.72;;;11.60;99.90;;;;;;5033030;28;20033;-63
2021/07/10 09:11:07;;;;;;;56.42;51.72;;;11.60;99.90;;;;;;5032994;28;20371;-63
2021/07/10 09:13:38;;;;;;;57.53;52.65;;;11.60;99.90;;;;;;5032929;28;20092;-63
2021/07/10 09:16:19;;;;;;;60.53;55.83;;;11.50;99.90;;;;;;5031877;28;20028;-62
2021/07/10 09:19:09;;;;;;;59.47;54.78;;;11.50;99.90;;;;;;5033049;28;20024;-62
2021/07/10 09:21:41;;;;;;;56.72;52.33;;;11.50;99.90;;;;;;5032939;28;20080;-63
2021/07/10 09:24:14;;;;;;;53.25;48.80;;;11.50;99.90;;;;;;5035463;28;20091;-61
2021/07/10 09:26:50;;;;;;;56.85;51.97;;;11.50;99.90;;;;;;5036923;28;20068;-59
2021/07/10 09:29:19;;;;;;;57.45;52.90;;;11.50;99.90;;;;;;5036519;28;20033;-59
2021/07/10 09:31:57;;;;;;;56.67;51.95;;;11.60;99.90;;;;;;5036607;28;20029;-60
2021/07/10 09:34:45;;;;;;;56.92;51.97;;;11.60;99.90;;;;;;5036705;28;20029;-60
2021/07/10 09:37:17;;;;;;;57.33;52.83;;;11.60;99.90;;;;;;5036695;28;20021;-60
2021/07/10 09:39:53;;;;;;;55.70;51.42;;;11.50;99.90;;;;;;5036914;28;20428;-61
2021/07/10 09:42:30;;;;;;;60.17;55.72;;;11.50;99.90;;;;;;5036646;28;20018;-60
2021/07/10 09:44:58;;;;;;;64.20;59.25;;;11.40;99.90;;;;;;5036505;28;20037;-60
2021/07/10 09:47:36;;;;;;;60.03;55.33;;;11.40;99.90;;;;;;5036352;28;20504;-59
2021/07/10 09:50:08;;;;;;;60.42;55.78;;;11.40;99.90;;;;;;5036620;28;20074;-60
2021/07/10 09:52:38;;;;;;;62.08;57.38;;;11.40;99.90;;;;;;5036472;28;20517;-60
2021/07/10 09:55:08;;;;;;;58.53;53.40;;;11.40;99.90;;;;;;5036288;28;20544;-60
2021/07/10 09:57:38;;;;;;;59.92;55.30;;;11.30;99.90;;;;;;5036199;28;20017;-61
2021/07/10 10:00:09;;;;;;;60.10;55.60;;;11.30;99.90;;;;;;5036205;28;20079;-61
2021/07/10 10:02:43;;;;;;;56.88;52.47;;;11.30;99.90;;;;;;5036133;28;20021;-60
2021/07/10 10:05:13;;;;;;;58.47;54.03;;;11.20;99.90;;;;;;5035899;28;20049;-60
2021/07/10 10:07:54;;;;;;;58.55;54.05;;;11.20;99.90;;;;;;5035994;28;20028;-60
2021/07/10 10:10:32;;;;;;;59.47;54.97;;;11.10;99.90;;;;;;5036048;28;20037;-60
2021/07/10 10:13:08;;;;;;;55.53;50.67;;;11.20;99.90;;;;;;5035765;28;20447;-59
2021/07/10 10:15:47;;;;;;;54.55;50.15;;;11.10;99.90;;;;;;5035821;28;20044;-60
2021/07/10 10:18:18;;;;;;;54.67;50.22;;;11.20;99.90;;;;;;5035820;28;20049;-60
2021/07/10 10:20:45;;;;;;;;;;;11.20;99.90;;;;;;5036138;28;20022;-59
2021/07/10 10:23:14;;;;;;;52.83;48.60;;;11.20;99.90;;;;;;5035678;28;20329;-60
2021/07/10 10:25:42;;;;;;;57.30;52.70;;;11.10;99.90;;;;;;5035550;28;20359;-60
2021/07/10 10:28:22;;;;;;;58.15;53.88;;;11.10;99.90;;;;;;5035544;28;20025;-62
2021/07/10 10:30:55;;;;;;;57.75;53.40;;;11.10;99.90;;;;;;5034207;28;20056;-59
2021/07/10 10:33:45;;;;;;;59.25;54.88;;;11.10;99.90;;;;;;5034985;28;20029;-60
2021/07/10 10:36:12;;;;;;;;;;;11.10;99.90;;;;;;5036084;28;20417;-59
2021/07/10 10:38:40;;;;;;;59.17;54.45;;;11.10;99.90;;;;;;5035392;28;19905;-60
2021/07/10 10:41:08;;;;;;;61.45;57.00;;;11.10;99.90;;;;;;5035439;28;20482;-61
2021/07/10 10:43:36;;;;;;;58.58;54.17;;;11.10;99.90;;;;;;5035641;28;20544;-60
2021/07/10 10:46:16;;;;;;;60.88;56.35;;;11.00;99.90;;;;;;5035126;28;20036;-59
2021/07/10 10:48:44;;;;;;;61.13;56.83;;;11.00;99.90;;;;;;5035171;28;20478;-60
2021/07/10 10:51:33;;;;;;;60.65;56.22;;;11.00;99.90;;;;;;5034907;28;20108;-60
2021/07/10 10:54:19;;;;;;;59.67;55.13;;;11.00;99.90;;;;;;5035000;28;20025;-60
2021/07/10 10:56:46;;;;;;;63.60;58.90;;;11.00;99.90;;;;;;5035450;28;20030;-60
2021/07/10 10:59:39;;;;;;;62.45;58.05;;;10.90;99.90;;;;;;5035009;28;20022;-60
2021/07/10 11:02:27;;;;;;;61.40;57.13;;;10.90;99.90;;;;;;5034849;28;20482;-60
2021/07/10 11:04:57;;;;;;;62.17;57.63;;;10.90;99.90;;;;;;5033543;28;20065;-60
2021/07/10 11:07:28;;;;;;;62.28;57.85;;;10.90;99.90;;;;;;5034778;28;20075;-59
2021/07/10 11:10:11;;;;;;;65.78;61.30;;;10.90;99.90;;;;;;5033470;28;20518;-59
2021/07/10 11:12:54;;;;;;;66.53;61.85;;;10.90;99.90;;;;;;5034613;28;20032;-60
2021/07/10 11:15:27;;;;;;;65.78;61.38;;;10.80;99.90;;;;;;5034654;28;20398;-60
2021/07/10 11:18:00;;;;;;;64.53;59.80;;;10.80;99.90;;;;;;5034532;28;20017;-60
2021/07/10 11:20:50;;;;;;;63.58;59.05;;;10.80;99.90;;;;;;5034649;28;20416;-60
2021/07/10 11:23:34;;;;;;;68.80;63.20;;;10.80;99.90;;;;;;5033641;28;20037;-60
2021/07/10 11:26:14;;;;;;;66.78;61.97;;;10.70;99.90;;;;;;5034481;28;20278;-60
2021/07/10 11:28:47;;;;;;;61.75;57.45;;;10.70;99.90;;;;;;5034417;28;20087;-61
2021/07/10 11:31:21;;;;;;;59.67;55.45;;;10.60;99.90;;;;;;5034426;28;20034;-60
2021/07/10 11:34:08;;;;;;;62.50;58.20;;;10.50;99.90;;;;;;5034251;28;20485;-59
2021/07/10 11:36:38;;;;;;;61.10;56.90;;;10.40;99.90;;;;;;5033135;28;20022;-59
2021/07/10 11:39:23;;;;;;;62.78;58.38;;;10.30;99.90;;;;;;5034417;28;20018;-59
2021/07/10 11:41:56;;;;;;;61.00;56.90;;;10.20;99.90;;;;;;5034178;28;20091;-60
2021/07/10 11:44:26;;;;;;;58.35;54.15;;;10.10;99.90;;;;;;5033806;28;20029;-60
2021/07/10 11:46:59;;;;;;;59.00;54.90;;;10.10;99.90;;;;;;5033985;28;20024;-61
2021/07/10 11:49:39;;;;;;;65.88;61.30;;;10.10;99.90;;;;;;5032754;28;20033;-60
2021/07/10 11:52:15;;;;;;;66.22;61.58;;;10.10;99.90;;;;;;5034033;28;20029;-60
2021/07/10 11:54:51;;;;;;;62.35;57.92;;;10.20;99.90;;;;;;5033690;28;20131;-59
2021/07/10 11:57:19;;;;;;;62.78;58.17;;;10.40;99.90;;;;;;5032642;28;20022;-60
2021/07/10 11:59:55;;;;;;;62.92;58.13;;;10.60;99.90;;;;;;5033808;28;20018;-59
2021/07/10 12:02:28;;;;;;;69.55;64.85;;;10.70;99.90;;;;;;5033743;28;20485;-60
2021/07/10 12:05:15;;;;;;;64.97;60.20;;;10.80;99.90;;;;;;5033623;28;20048;-60
2021/07/10 12:07:51;;;;;;;71.78;66.47;;;11.00;99.90;;;;;;5033573;28;20500;-60
2021/07/10 12:10:29;;;;;;;68.65;63.58;;;11.10;99.90;;;;;;5033865;28;20025;-60
2021/07/10 12:12:59;;;;;;;66.10;61.45;;;11.10;99.90;;;;;;5033548;28;20030;-60
2021/07/10 12:15:28;;;;;;;62.80;58.17;;;11.10;99.90;;;;;;5033686;28;20033;-60
2021/07/10 12:17:58;;;;;;;61.17;56.67;;;11.00;99.90;;;;;;5033574;28;20032;-60
2021/07/10 12:20:30;;;;;;;60.60;56.10;;;11.00;99.90;;;;;;5033695;28;20383;-59
2021/07/10 12:23:15;;;;;;;61.55;57.33;;;11.00;99.90;;;;;;5033411;28;20025;-62
2021/07/10 12:25:48;;;;;;;60.47;56.05;;;10.90;99.90;;;;;;5033619;28;20482;-61
2021/07/10 12:28:17;;;;;;;59.20;54.95;;;10.80;99.90;;;;;;5033653;28;20013;-60
2021/07/10 12:30:54;;;;;;;57.53;53.50;;;10.80;99.90;;;;;;5033442;28;20017;-60
2021/07/10 12:33:33;;;;;;;62.45;57.63;;;10.70;99.90;;;;;;5033372;28;20413;-60
2021/07/10 12:36:19;;;;;;;58.78;54.67;;;10.60;99.90;;;;;;5033412;28;20029;-60
2021/07/10 12:39:00;;;;;;;63.47;59.17;;;10.40;99.90;;;;;;5033346;28;20044;-60
2021/07/10 12:41:32;;;;;;;63.30;59.10;;;10.40;99.90;;;;;;5032113;28;20036;-61
2021/07/10 12:44:28;;;;;;;61.00;56.60;;;10.30;99.90;;;;;;5033175;28;20107;-60
2021/07/10 12:46:58;;;;;;;63.03;58.63;;;10.30;99.90;;;;;;5033327;28;20022;-61
2021/07/10 12:49:29;;;;;;;60.22;56.13;;;10.20;99.90;;;;;;5033624;28;20518;-61
2021/07/10 12:51:59;;;;;;;63.13;58.72;;;10.20;99.90;;;;;;5033429;28;20060;-60
2021/07/10 12:54:45;;;;;;;63.35;59.25;;;10.30;99.90;;;;;;5033079;28;20026;-60